sensor_id;sensor_type;location;lat;lon;timestamp;pressure;altitude;pressure_sealevel;temperature;humidity
63700;BME280;49845;47.130;142.766;2023-05-16T00:00:29;100176.28;;;14.56;84.38
63700;BME280;49845;47.130;142.766;2023-05-16T00:03:05;100181.31;;;14.87;81.30
63700;BME280;49845;47.130;142.766;2023-05-16T00:05:38;100167.56;;;14.80;81.96
63700;BME280;49845;47.130;142.766;2023-05-16T00:08:14;100124.66;;;14.53;79.75
63700;BME280;49845;47.130;142.766;2023-05-16T00:10:44;100167.97;;;14.93;80.56
63700;BME280;49845;47.130;142.766;2023-05-16T00:13:17;100165.03;;;15.26;80.38
63700;BME280;49845;47.130;142.766;2023-05-16T00:15:50;100167.06;;;15.41;80.24
63700;BME280;49845;47.130;142.766;2023-05-16T00:22:20;100168.84;;;15.17;78.34
63700;BME280;49845;47.130;142.766;2023-05-16T00:24:51;100182.63;;;15.24;79.46
63700;BME280;49845;47.130;142.766;2023-05-16T00:27:23;100163.25;;;15.03;78.07
63700;BME280;49845;47.130;142.766;2023-05-16T00:29:56;100153.88;;;14.71;77.95
63700;BME280;49845;47.130;142.766;2023-05-16T00:32:28;100175.81;;;14.43;78.48
63700;BME280;49845;47.130;142.766;2023-05-16T00:35:00;100174.25;;;14.11;78.72
63700;BME280;49845;47.130;142.766;2023-05-16T00:37:31;100167.97;;;13.88;79.92
63700;BME280;49845;47.130;142.766;2023-05-16T00:40:03;100183.31;;;13.72;80.69
63700;BME280;49845;47.130;142.766;2023-05-16T00:42:35;100175.19;;;13.52;80.98
63700;BME280;49845;47.130;142.766;2023-05-16T00:45:09;100175.81;;;13.30;81.58
63700;BME280;49845;47.130;142.766;2023-05-16T00:47:41;100176.31;;;13.12;81.72
63700;BME280;49845;47.130;142.766;2023-05-16T00:50:12;100173.13;;;13.01;82.45
63700;BME280;49845;47.130;142.766;2023-05-16T00:52:44;100181.91;;;13.00;83.45
63700;BME280;49845;47.130;142.766;2023-05-16T00:55:17;100177.69;;;12.94;82.99
63700;BME280;49845;47.130;142.766;2023-05-16T00:57:48;100176.16;;;12.85;83.52
63700;BME280;49845;47.130;142.766;2023-05-16T01:00:22;100184.19;;;12.79;83.52
63700;BME280;49845;47.130;142.766;2023-05-16T01:02:54;100144.88;;;12.46;83.83
63700;BME280;49845;47.130;142.766;2023-05-16T01:05:27;100176.78;;;12.62;84.63
63700;BME280;49845;47.130;142.766;2023-05-16T01:07:59;100185.66;;;12.58;84.77
63700;BME280;49845;47.130;142.766;2023-05-16T01:10:45;100179.28;;;12.67;85.04
63700;BME280;49845;47.130;142.766;2023-05-16T01:13:26;100170.78;;;12.59;84.24
63700;BME280;49845;47.130;142.766;2023-05-16T01:16:05;100181.09;;;12.65;84.54
63700;BME280;49845;47.130;142.766;2023-05-16T01:18:43;100199.22;;;12.72;84.66
63700;BME280;49845;47.130;142.766;2023-05-16T01:21:21;100184.38;;;12.73;84.73
63700;BME280;49845;47.130;142.766;2023-05-16T01:24:11;100197.63;;;12.67;84.17
63700;BME280;49845;47.130;142.766;2023-05-16T01:26:48;100195.31;;;12.55;84.16
63700;BME280;49845;47.130;142.766;2023-05-16T01:29:19;100199.09;;;12.44;84.37
63700;BME280;49845;47.130;142.766;2023-05-16T01:31:50;100204.50;;;12.38;84.99
63700;BME280;49845;47.130;142.766;2023-05-16T01:34:21;100190.56;;;12.36;85.33
63700;BME280;49845;47.130;142.766;2023-05-16T01:36:58;100192.66;;;12.22;85.03
63700;BME280;49845;47.130;142.766;2023-05-16T01:39:36;100173.84;;;12.04;85.35
63700;BME280;49845;47.130;142.766;2023-05-16T01:42:14;100162.00;;;11.88;85.92
63700;BME280;49845;47.130;142.766;2023-05-16T01:44:49;100175.88;;;11.93;86.71
63700;BME280;49845;47.130;142.766;2023-05-16T01:47:20;100165.53;;;11.87;86.97
63700;BME280;49845;47.130;142.766;2023-05-16T01:49:59;100157.75;;;11.82;87.60
63700;BME280;49845;47.130;142.766;2023-05-16T01:52:35;100169.16;;;11.80;87.73
63700;BME280;49845;47.130;142.766;2023-05-16T01:55:10;100162.34;;;11.73;87.74
63700;BME280;49845;47.130;142.766;2023-05-16T01:57:46;100155.75;;;11.56;87.97
63700;BME280;49845;47.130;142.766;2023-05-16T02:00:21;100168.06;;;11.51;88.43
63700;BME280;49845;47.130;142.766;2023-05-16T02:02:52;100171.69;;;11.44;88.83
63700;BME280;49845;47.130;142.766;2023-05-16T02:05:23;100180.38;;;11.46;88.89
63700;BME280;49845;47.130;142.766;2023-05-16T02:07:54;100182.09;;;11.47;89.54
63700;BME280;49845;47.130;142.766;2023-05-16T02:10:26;100190.19;;;11.36;89.44
63700;BME280;49845;47.130;142.766;2023-05-16T02:12:58;100201.50;;;11.37;89.42
63700;BME280;49845;47.130;142.766;2023-05-16T02:15:29;100198.13;;;11.32;89.13
63700;BME280;49845;47.130;142.766;2023-05-16T02:17:59;100198.19;;;11.29;89.34
63700;BME280;49845;47.130;142.766;2023-05-16T02:20:30;100206.81;;;11.34;89.48
63700;BME280;49845;47.130;142.766;2023-05-16T02:23:01;100207.75;;;11.28;89.11
63700;BME280;49845;47.130;142.766;2023-05-16T02:25:32;100187.19;;;11.11;89.12
63700;BME280;49845;47.130;142.766;2023-05-16T02:28:04;100201.91;;;11.15;89.22
63700;BME280;49845;47.130;142.766;2023-05-16T02:30:38;100201.91;;;11.15;89.38
63700;BME280;49845;47.130;142.766;2023-05-16T02:33:09;100198.44;;;11.16;89.10
63700;BME280;49845;47.130;142.766;2023-05-16T02:35:40;100208.03;;;11.16;89.00
63700;BME280;49845;47.130;142.766;2023-05-16T02:38:10;100194.19;;;11.11;88.67
63700;BME280;49845;47.130;142.766;2023-05-16T02:40:44;100200.31;;;11.08;88.68
63700;BME280;49845;47.130;142.766;2023-05-16T02:43:17;100202.16;;;11.03;89.38
63700;BME280;49845;47.130;142.766;2023-05-16T02:45:48;100207.50;;;10.97;89.44
63700;BME280;49845;47.130;142.766;2023-05-16T02:48:20;100201.69;;;10.83;89.70
63700;BME280;49845;47.130;142.766;2023-05-16T02:50:50;100199.25;;;10.73;90.28
63700;BME280;49845;47.130;142.766;2023-05-16T02:53:21;100197.50;;;10.72;90.60
63700;BME280;49845;47.130;142.766;2023-05-16T02:55:52;100186.97;;;10.78;91.00
63700;BME280;49845;47.130;142.766;2023-05-16T02:58:24;100196.38;;;10.86;90.85
63700;BME280;49845;47.130;142.766;2023-05-16T03:00:54;100193.59;;;10.95;91.25
63700;BME280;49845;47.130;142.766;2023-05-16T03:03:25;100195.28;;;10.99;90.12
63700;BME280;49845;47.130;142.766;2023-05-16T03:05:57;100196.19;;;10.96;89.81
63700;BME280;49845;47.130;142.766;2023-05-16T03:08:28;100179.66;;;10.96;89.84
63700;BME280;49845;47.130;142.766;2023-05-16T03:10:58;100181.22;;;11.06;89.97
63700;BME280;49845;47.130;142.766;2023-05-16T03:13:31;100174.06;;;11.14;89.25
63700;BME280;49845;47.130;142.766;2023-05-16T03:16:01;100167.75;;;11.23;89.39
63700;BME280;49845;47.130;142.766;2023-05-16T03:18:32;100161.44;;;11.35;89.29
63700;BME280;49845;47.130;142.766;2023-05-16T03:21:03;100106.19;;;11.08;87.69
63700;BME280;49845;47.130;142.766;2023-05-16T03:23:36;100168.41;;;11.36;87.43
63700;BME280;49845;47.130;142.766;2023-05-16T03:26:07;100162.34;;;11.34;87.41
63700;BME280;49845;47.130;142.766;2023-05-16T03:28:39;100151.09;;;11.29;86.68
63700;BME280;49845;47.130;142.766;2023-05-16T03:31:10;100157.88;;;11.39;87.11
63700;BME280;49845;47.130;142.766;2023-05-16T03:33:41;100154.94;;;11.53;86.86
63700;BME280;49845;47.130;142.766;2023-05-16T03:36:12;100153.69;;;11.71;86.59
63700;BME280;49845;47.130;142.766;2023-05-16T03:38:43;100159.59;;;11.79;85.58
63700;BME280;49845;47.130;142.766;2023-05-16T03:41:14;100156.72;;;11.91;85.26
63700;BME280;49845;47.130;142.766;2023-05-16T03:43:48;100152.91;;;12.04;84.84
63700;BME280;49845;47.130;142.766;2023-05-16T03:46:22;100164.03;;;12.14;84.24
63700;BME280;49845;47.130;142.766;2023-05-16T03:48:57;100161.03;;;12.29;84.76
63700;BME280;49845;47.130;142.766;2023-05-16T03:51:31;100156.59;;;12.32;83.38
63700;BME280;49845;47.130;142.766;2023-05-16T03:54:03;100160.69;;;12.43;82.75
63700;BME280;49845;47.130;142.766;2023-05-16T03:56:34;100162.47;;;12.41;83.18
63700;BME280;49845;47.130;142.766;2023-05-16T03:59:06;100160.75;;;12.40;82.54
63700;BME280;49845;47.130;142.766;2023-05-16T04:01:37;100158.88;;;12.45;82.49
63700;BME280;49845;47.130;142.766;2023-05-16T04:04:08;100158.63;;;12.55;82.52
63700;BME280;49845;47.130;142.766;2023-05-16T04:06:39;100151.38;;;12.64;83.18
63700;BME280;49845;47.130;142.766;2023-05-16T04:09:09;100151.19;;;12.72;82.22
63700;BME280;49845;47.130;142.766;2023-05-16T04:11:40;100153.06;;;12.67;82.07
63700;BME280;49845;47.130;142.766;2023-05-16T04:14:13;100154.78;;;12.68;82.20
63700;BME280;49845;47.130;142.766;2023-05-16T04:16:44;100151.19;;;12.72;82.26
63700;BME280;49845;47.130;142.766;2023-05-16T04:19:14;100144.66;;;12.87;82.21
63700;BME280;49845;47.130;142.766;2023-05-16T04:21:45;100124.03;;;13.06;82.29
63700;BME280;49845;47.130;142.766;2023-05-16T04:24:16;100136.38;;;13.33;81.12
63700;BME280;49845;47.130;142.766;2023-05-16T04:26:47;100135.09;;;13.47;80.50
63700;BME280;49845;47.130;142.766;2023-05-16T04:29:20;100139.00;;;13.62;80.36
63700;BME280;49845;47.130;142.766;2023-05-16T04:31:51;100147.47;;;13.71;79.76
63700;BME280;49845;47.130;142.766;2023-05-16T04:34:21;100144.47;;;13.84;78.77
63700;BME280;49845;47.130;142.766;2023-05-16T04:36:55;100130.31;;;13.88;78.65
63700;BME280;49845;47.130;142.766;2023-05-16T04:39:26;100130.50;;;13.81;78.33
63700;BME280;49845;47.130;142.766;2023-05-16T04:41:56;100128.69;;;13.84;78.70
63700;BME280;49845;47.130;142.766;2023-05-16T04:44:31;100126.50;;;13.98;78.46
63700;BME280;49845;47.130;142.766;2023-05-16T04:47:02;100122.56;;;14.11;78.41
63700;BME280;49845;47.130;142.766;2023-05-16T04:49:35;100101.13;;;14.23;77.88
63700;BME280;49845;47.130;142.766;2023-05-16T04:52:09;100091.59;;;14.46;77.47
63700;BME280;49845;47.130;142.766;2023-05-16T04:54:40;100101.59;;;14.61;76.30
63700;BME280;49845;47.130;142.766;2023-05-16T04:57:11;100103.41;;;14.59;76.05
63700;BME280;49845;47.130;142.766;2023-05-16T04:59:43;100091.69;;;14.93;78.04
63700;BME280;49845;47.130;142.766;2023-05-16T05:02:14;100109.88;;;15.23;76.77
63700;BME280;49845;47.130;142.766;2023-05-16T05:04:44;100108.81;;;15.27;74.83
63700;BME280;49845;47.130;142.766;2023-05-16T05:07:16;100098.88;;;15.12;73.27
63700;BME280;49845;47.130;142.766;2023-05-16T05:09:46;100100.25;;;14.98;74.72
63700;BME280;49845;47.130;142.766;2023-05-16T05:12:17;100091.09;;;15.08;75.09
63700;BME280;49845;47.130;142.766;2023-05-16T05:14:49;100091.31;;;15.26;74.03
63700;BME280;49845;47.130;142.766;2023-05-16T05:17:21;100087.22;;;15.41;73.79
63700;BME280;49845;47.130;142.766;2023-05-16T05:19:52;100074.00;;;15.42;73.23
63700;BME280;49845;47.130;142.766;2023-05-16T05:22:23;100078.78;;;15.32;71.65
63700;BME280;49845;47.130;142.766;2023-05-16T05:24:54;100071.41;;;15.19;72.22
63700;BME280;49845;47.130;142.766;2023-05-16T05:27:24;100068.09;;;15.14;72.58
63700;BME280;49845;47.130;142.766;2023-05-16T05:29:57;100066.38;;;15.13;72.44
63700;BME280;49845;47.130;142.766;2023-05-16T05:32:28;100066.06;;;14.98;72.30
63700;BME280;49845;47.130;142.766;2023-05-16T05:34:58;100069.94;;;14.88;73.04
63700;BME280;49845;47.130;142.766;2023-05-16T05:37:29;100060.88;;;14.72;73.61
63700;BME280;49845;47.130;142.766;2023-05-16T05:40:00;100075.41;;;14.58;73.33
63700;BME280;49845;47.130;142.766;2023-05-16T05:42:31;100074.00;;;14.48;73.66
63700;BME280;49845;47.130;142.766;2023-05-16T05:45:04;100080.53;;;14.36;73.61
63700;BME280;49845;47.130;142.766;2023-05-16T05:47:35;100058.97;;;14.27;73.81
63700;BME280;49845;47.130;142.766;2023-05-16T05:50:07;100079.91;;;14.03;74.03
63700;BME280;49845;47.130;142.766;2023-05-16T05:52:39;100080.63;;;13.81;74.60
63700;BME280;49845;47.130;142.766;2023-05-16T05:55:10;100088.59;;;13.78;75.44
63700;BME280;49845;47.130;142.766;2023-05-16T05:57:41;100088.84;;;13.71;75.47
63700;BME280;49845;47.130;142.766;2023-05-16T06:00:15;100073.34;;;13.63;75.88
63700;BME280;49845;47.130;142.766;2023-05-16T06:02:47;100063.47;;;13.70;75.90
63700;BME280;49845;47.130;142.766;2023-05-16T06:05:18;100068.72;;;13.70;76.02
63700;BME280;49845;47.130;142.766;2023-05-16T06:07:49;100065.78;;;13.80;75.67
63700;BME280;49845;47.130;142.766;2023-05-16T06:10:20;100064.63;;;13.88;75.64
63700;BME280;49845;47.130;142.766;2023-05-16T06:12:50;100063.75;;;13.89;75.30
63700;BME280;49845;47.130;142.766;2023-05-16T06:15:23;100060.31;;;13.87;75.27
63700;BME280;49845;47.130;142.766;2023-05-16T06:17:54;100067.69;;;13.75;75.25
63700;BME280;49845;47.130;142.766;2023-05-16T06:20:25;100076.56;;;13.71;75.66
63700;BME280;49845;47.130;142.766;2023-05-16T06:22:56;100087.34;;;13.62;75.44
63700;BME280;49845;47.130;142.766;2023-05-16T06:25:26;100082.59;;;13.47;75.96
63700;BME280;49845;47.130;142.766;2023-05-16T06:28:00;100075.72;;;13.43;76.34
63700;BME280;49845;47.130;142.766;2023-05-16T06:30:36;100058.63;;;13.29;76.49
63700;BME280;49845;47.130;142.766;2023-05-16T06:33:06;100088.09;;;13.39;76.90
63700;BME280;49845;47.130;142.766;2023-05-16T06:35:37;100095.84;;;13.42;76.36
63700;BME280;49845;47.130;142.766;2023-05-16T06:38:08;100084.25;;;13.20;76.44
63700;BME280;49845;47.130;142.766;2023-05-16T06:40:39;100090.28;;;13.23;77.12
63700;BME280;49845;47.130;142.766;2023-05-16T06:43:10;100086.41;;;13.36;77.08
63700;BME280;49845;47.130;142.766;2023-05-16T06:45:43;100092.63;;;13.34;75.78
63700;BME280;49845;47.130;142.766;2023-05-16T06:48:16;100093.56;;;13.31;75.96
63700;BME280;49845;47.130;142.766;2023-05-16T06:50:52;100091.66;;;13.36;75.95
63700;BME280;49845;47.130;142.766;2023-05-16T06:53:23;100050.38;;;13.12;76.16
63700;BME280;49845;47.130;142.766;2023-05-16T06:55:55;100087.56;;;13.26;76.39
63700;BME280;49845;47.130;142.766;2023-05-16T06:58:25;100099.34;;;13.13;76.47
63700;BME280;49845;47.130;142.766;2023-05-16T07:00:58;100077.53;;;13.11;76.90
63700;BME280;49845;47.130;142.766;2023-05-16T07:03:33;100071.38;;;13.12;76.62
63700;BME280;49845;47.130;142.766;2023-05-16T07:06:14;100057.81;;;13.27;77.19
63700;BME280;49845;47.130;142.766;2023-05-16T07:09:02;100051.09;;;13.47;76.75
63700;BME280;49845;47.130;142.766;2023-05-16T07:11:33;100068.72;;;13.70;76.40
63700;BME280;49845;47.130;142.766;2023-05-16T07:14:16;100057.38;;;13.69;75.01
63700;BME280;49845;47.130;142.766;2023-05-16T07:16:48;100050.72;;;13.59;74.61
63700;BME280;49845;47.130;142.766;2023-05-16T07:19:20;100032.94;;;13.41;74.41
63700;BME280;49845;47.130;142.766;2023-05-16T07:21:50;100054.44;;;13.52;74.47
63700;BME280;49845;47.130;142.766;2023-05-16T07:24:21;100023.34;;;13.10;74.73
63700;BME280;49845;47.130;142.766;2023-05-16T07:26:52;100031.22;;;13.10;75.33
63700;BME280;49845;47.130;142.766;2023-05-16T07:29:22;100039.59;;;12.93;75.75
63700;BME280;49845;47.130;142.766;2023-05-16T07:31:55;100044.25;;;12.83;76.20
63700;BME280;49845;47.130;142.766;2023-05-16T07:34:25;100055.38;;;12.91;76.75
63700;BME280;49845;47.130;142.766;2023-05-16T07:36:56;100040.16;;;13.03;76.71
63700;BME280;49845;47.130;142.766;2023-05-16T07:39:27;100047.16;;;13.04;76.58
63700;BME280;49845;47.130;142.766;2023-05-16T07:41:58;100055.13;;;13.01;75.80
63700;BME280;49845;47.130;142.766;2023-05-16T07:44:28;100043.97;;;12.92;76.60
63700;BME280;49845;47.130;142.766;2023-05-16T07:47:01;100041.28;;;12.95;77.03
63700;BME280;49845;47.130;142.766;2023-05-16T07:49:32;100035.31;;;12.90;76.75
63700;BME280;49845;47.130;142.766;2023-05-16T07:52:03;100037.94;;;12.90;76.98
63700;BME280;49845;47.130;142.766;2023-05-16T07:54:34;100043.59;;;12.75;76.24
63700;BME280;49845;47.130;142.766;2023-05-16T07:57:05;100056.28;;;12.59;77.09
63700;BME280;49845;47.130;142.766;2023-05-16T07:59:36;100066.16;;;12.49;77.31
63700;BME280;49845;47.130;142.766;2023-05-16T08:02:09;100072.59;;;12.38;77.78
63700;BME280;49845;47.130;142.766;2023-05-16T08:04:43;100048.00;;;12.11;78.17
63700;BME280;49845;47.130;142.766;2023-05-16T08:07:14;100082.72;;;12.19;78.42
63700;BME280;49845;47.130;142.766;2023-05-16T08:09:45;100089.56;;;12.23;78.56
63700;BME280;49845;47.130;142.766;2023-05-16T08:12:16;100083.69;;;12.15;78.42
63700;BME280;49845;47.130;142.766;2023-05-16T08:14:46;100089.13;;;12.07;78.96
63700;BME280;49845;47.130;142.766;2023-05-16T08:17:19;100085.97;;;11.93;78.84
63700;BME280;49845;47.130;142.766;2023-05-16T08:19:50;100088.75;;;11.85;79.45
63700;BME280;49845;47.130;142.766;2023-05-16T08:22:20;100087.91;;;11.84;79.74
63700;BME280;49845;47.130;142.766;2023-05-16T08:24:51;100076.66;;;11.81;79.97
63700;BME280;49845;47.130;142.766;2023-05-16T08:27:25;100083.69;;;11.79;80.06
63700;BME280;49845;47.130;142.766;2023-05-16T08:29:56;100085.47;;;11.77;80.04
63700;BME280;49845;47.130;142.766;2023-05-16T08:32:28;100081.94;;;11.78;80.02
63700;BME280;49845;47.130;142.766;2023-05-16T08:34:59;100073.91;;;11.87;80.23
63700;BME280;49845;47.130;142.766;2023-05-16T08:37:34;100073.03;;;11.85;79.44
63700;BME280;49845;47.130;142.766;2023-05-16T08:40:06;100070.53;;;11.80;78.93
63700;BME280;49845;47.130;142.766;2023-05-16T08:42:39;100078.56;;;11.73;78.84
63700;BME280;49845;47.130;142.766;2023-05-16T08:45:12;100083.88;;;11.71;79.43
63700;BME280;49845;47.130;142.766;2023-05-16T08:47:50;100081.28;;;11.68;79.14
63700;BME280;49845;47.130;142.766;2023-05-16T08:50:29;100082.22;;;11.65;79.06
63700;BME280;49845;47.130;142.766;2023-05-16T08:53:04;100084.97;;;11.61;79.46
63700;BME280;49845;47.130;142.766;2023-05-16T08:55:41;100084.34;;;11.51;79.21
63700;BME280;49845;47.130;142.766;2023-05-16T08:58:15;100088.91;;;11.41;80.03
63700;BME280;49845;47.130;142.766;2023-05-16T09:00:47;100084.59;;;11.39;80.17
63700;BME280;49845;47.130;142.766;2023-05-16T09:03:19;100083.03;;;11.32;80.31
63700;BME280;49845;47.130;142.766;2023-05-16T09:05:53;100074.28;;;11.33;80.26
63700;BME280;49845;47.130;142.766;2023-05-16T09:08:25;100069.25;;;11.23;80.29
63700;BME280;49845;47.130;142.766;2023-05-16T09:10:56;100086.09;;;11.10;80.59
63700;BME280;49845;47.130;142.766;2023-05-16T09:13:27;100088.97;;;10.98;80.99
63700;BME280;49845;47.130;142.766;2023-05-16T09:16:10;100092.41;;;11.00;80.87
63700;BME280;49845;47.130;142.766;2023-05-16T09:18:44;100104.88;;;10.87;81.04
63700;BME280;49845;47.130;142.766;2023-05-16T09:21:17;100111.09;;;10.82;81.58
63700;BME280;49845;47.130;142.766;2023-05-16T09:23:49;100113.81;;;10.75;81.87
63700;BME280;49845;47.130;142.766;2023-05-16T09:26:21;100120.84;;;10.73;82.06
63700;BME280;49845;47.130;142.766;2023-05-16T09:28:53;100097.78;;;10.49;82.29
63700;BME280;49845;47.130;142.766;2023-05-16T09:31:26;100129.78;;;10.60;82.40
63700;BME280;49845;47.130;142.766;2023-05-16T09:34:07;100112.69;;;10.44;82.08
63700;BME280;49845;47.130;142.766;2023-05-16T09:36:39;100167.44;;;10.50;82.58
63700;BME280;49845;47.130;142.766;2023-05-16T09:39:14;100173.63;;;10.43;82.67
63700;BME280;49845;47.130;142.766;2023-05-16T09:41:45;100170.31;;;10.34;82.89
63700;BME280;49845;47.130;142.766;2023-05-16T09:44:21;100169.53;;;10.28;83.67
63700;BME280;49845;47.130;142.766;2023-05-16T09:46:53;100172.25;;;10.20;83.27
63700;BME280;49845;47.130;142.766;2023-05-16T09:49:26;100189.72;;;10.15;83.59
63700;BME280;49845;47.130;142.766;2023-05-16T09:52:00;100205.53;;;10.06;83.92
63700;BME280;49845;47.130;142.766;2023-05-16T09:54:34;100209.97;;;10.01;84.04
63700;BME280;49845;47.130;142.766;2023-05-16T09:57:05;100211.69;;;10.02;84.62
63700;BME280;49845;47.130;142.766;2023-05-16T09:59:39;100209.16;;;9.96;84.56
63700;BME280;49845;47.130;142.766;2023-05-16T10:02:13;100181.63;;;9.76;84.68
63700;BME280;49845;47.130;142.766;2023-05-16T10:04:46;100210.06;;;9.96;84.79
63700;BME280;49845;47.130;142.766;2023-05-16T10:07:17;100213.59;;;9.92;84.50
63700;BME280;49845;47.130;142.766;2023-05-16T10:09:51;100210.19;;;9.85;84.47
63700;BME280;49845;47.130;142.766;2023-05-16T10:12:25;100195.50;;;9.78;84.78
63700;BME280;49845;47.130;142.766;2023-05-16T10:15:00;100186.81;;;9.79;84.60
63700;BME280;49845;47.130;142.766;2023-05-16T10:17:34;100179.16;;;9.67;84.98
63700;BME280;49845;47.130;142.766;2023-05-16T10:20:09;100171.44;;;9.58;85.02
63700;BME280;49845;47.130;142.766;2023-05-16T10:22:43;100128.44;;;9.23;85.46
63700;BME280;49845;47.130;142.766;2023-05-16T10:25:21;100161.41;;;9.27;86.13
63700;BME280;49845;47.130;142.766;2023-05-16T10:27:59;100163.22;;;9.22;86.53
63700;BME280;49845;47.130;142.766;2023-05-16T10:30:36;100178.94;;;9.16;86.96
63700;BME280;49845;47.130;142.766;2023-05-16T10:33:12;100153.09;;;8.97;87.19
63700;BME280;49845;47.130;142.766;2023-05-16T10:35:45;100196.38;;;9.11;87.15
63700;BME280;49845;47.130;142.766;2023-05-16T10:38:17;100195.59;;;9.01;87.52
63700;BME280;49845;47.130;142.766;2023-05-16T10:40:52;100213.84;;;9.02;87.35
63700;BME280;49845;47.130;142.766;2023-05-16T10:43:26;100219.06;;;9.02;87.71
63700;BME280;49845;47.130;142.766;2023-05-16T10:46:01;100210.50;;;8.91;87.66
63700;BME280;49845;47.130;142.766;2023-05-16T10:48:35;100226.94;;;8.96;88.00
63700;BME280;49845;47.130;142.766;2023-05-16T10:54:11;100232.31;;;8.78;88.11
63700;BME280;49845;47.130;142.766;2023-05-16T10:56:42;100240.22;;;8.72;88.57
63700;BME280;49845;47.130;142.766;2023-05-16T10:59:22;100247.22;;;8.67;89.32
63700;BME280;49845;47.130;142.766;2023-05-16T11:01:55;100257.63;;;8.63;89.26
63700;BME280;49845;47.130;142.766;2023-05-16T11:04:44;100257.63;;;8.63;89.43
63700;BME280;49845;47.130;142.766;2023-05-16T11:07:17;100268.06;;;8.63;89.52
63700;BME280;49845;47.130;142.766;2023-05-16T11:10:05;100264.56;;;8.68;89.42
63700;BME280;49845;47.130;142.766;2023-05-16T11:12:57;100242.16;;;8.45;89.35
63700;BME280;49845;47.130;142.766;2023-05-16T11:15:44;100250.00;;;8.40;89.86
63700;BME280;49845;47.130;142.766;2023-05-16T11:18:16;100245.59;;;8.50;89.47
63700;BME280;49845;47.130;142.766;2023-05-16T11:20:51;100278.47;;;8.63;89.29
63700;BME280;49845;47.130;142.766;2023-05-16T11:23:24;100283.69;;;8.63;89.27
63700;BME280;49845;47.130;142.766;2023-05-16T11:25:57;100290.66;;;8.61;89.36
63700;BME280;49845;47.130;142.766;2023-05-16T11:28:29;100292.38;;;8.62;89.33
63700;BME280;49845;47.130;142.766;2023-05-16T11:30:59;100280.16;;;8.74;88.99
63700;BME280;49845;47.130;142.766;2023-05-16T11:33:32;100274.94;;;8.71;88.69
63700;BME280;49845;47.130;142.766;2023-05-16T11:36:06;100270.63;;;8.68;88.79
63700;BME280;49845;47.130;142.766;2023-05-16T11:38:43;100273.22;;;8.70;88.34
63700;BME280;49845;47.130;142.766;2023-05-16T11:41:21;100288.88;;;8.67;88.28
63700;BME280;49845;47.130;142.766;2023-05-16T11:43:55;100290.59;;;8.68;88.53
63700;BME280;49845;47.130;142.766;2023-05-16T11:46:25;100293.16;;;8.72;88.32
63700;BME280;49845;47.130;142.766;2023-05-16T11:48:58;100294.06;;;8.70;88.01
63700;BME280;49845;47.130;142.766;2023-05-16T11:51:32;100259.53;;;8.43;88.19
63700;BME280;49845;47.130;142.766;2023-05-16T11:54:04;100301.03;;;8.68;88.13
63700;BME280;49845;47.130;142.766;2023-05-16T11:56:36;100306.28;;;8.61;88.26
63700;BME280;49845;47.130;142.766;2023-05-16T11:59:07;100287.31;;;8.41;88.21
63700;BME280;49845;47.130;142.766;2023-05-16T12:01:40;100311.56;;;8.52;88.54
63700;BME280;49845;47.130;142.766;2023-05-16T12:04:12;100306.31;;;8.57;88.78
63700;BME280;49845;47.130;142.766;2023-05-16T12:06:44;100299.44;;;8.51;88.66
63700;BME280;49845;47.130;142.766;2023-05-16T12:09:28;100318.44;;;8.62;88.74
63700;BME280;49845;47.130;142.766;2023-05-16T12:12:04;100316.63;;;8.74;88.31
63700;BME280;49845;47.130;142.766;2023-05-16T12:14:35;100305.31;;;8.73;87.88
63700;BME280;49845;47.130;142.766;2023-05-16T12:17:06;100302.75;;;8.72;87.73
63700;BME280;49845;47.130;142.766;2023-05-16T12:19:42;100306.19;;;8.71;87.71
63700;BME280;49845;47.130;142.766;2023-05-16T12:22:15;100301.00;;;8.71;87.68
63700;BME280;49845;47.130;142.766;2023-05-16T12:24:46;100272.34;;;8.72;87.64
63700;BME280;49845;47.130;142.766;2023-05-16T12:27:26;100268.00;;;8.70;87.36
63700;BME280;49845;47.130;142.766;2023-05-16T12:29:57;100265.41;;;8.68;87.46
63700;BME280;49845;47.130;142.766;2023-05-16T12:32:36;100275.88;;;8.65;87.25
63700;BME280;49845;47.130;142.766;2023-05-16T12:35:20;100268.00;;;8.70;87.31
63700;BME280;49845;47.130;142.766;2023-05-16T12:38:03;100243.72;;;8.69;87.05
63700;BME280;49845;47.130;142.766;2023-05-16T12:40:44;100200.59;;;8.30;86.44
63700;BME280;49845;47.130;142.766;2023-05-16T12:43:18;100243.78;;;8.58;87.00
63700;BME280;49845;47.130;142.766;2023-05-16T12:45:53;100224.75;;;8.50;87.28
63700;BME280;49845;47.130;142.766;2023-05-16T12:48:32;100222.22;;;8.42;87.59
63700;BME280;49845;47.130;142.766;2023-05-16T12:51:11;100224.84;;;8.38;88.04
63700;BME280;49845;47.130;142.766;2023-05-16T12:53:44;100203.22;;;8.31;87.80
63700;BME280;49845;47.130;142.766;2023-05-16T12:56:35;100209.31;;;8.29;88.21
63700;BME280;49845;47.130;142.766;2023-05-16T12:59:08;100202.41;;;8.18;88.24
63700;BME280;49845;47.130;142.766;2023-05-16T13:01:39;100195.53;;;8.14;88.42
63700;BME280;49845;47.130;142.766;2023-05-16T13:04:14;100208.56;;;8.11;88.80
63700;BME280;49845;47.130;142.766;2023-05-16T13:06:47;100209.44;;;8.07;88.89
63700;BME280;49845;47.130;142.766;2023-05-16T13:09:21;100220.75;;;8.03;89.01